Time;durP1;ratioP1;P1;durP2;ratioP2;P2;SDS_P1;SDS_P2;PMS_P1;PMS_P2;Temp;Humidity;BMP_temperature;BMP_pressure;BME280_temperature;BME280_humidity;BME280_pressure;Samples;Min_cycle;Max_cycle;Signal;HPM_P1;HPM_P2
2022/11/19 00:01:53;;;;;;;15.75;14.65;;;10.00;99.90;;;;;;5003012;28;20037;-75
2022/11/19 00:04:18;;;;;;;0.17;0.17;;;10.10;99.90;;;;;;4984306;28;20026;-75
2022/11/19 00:06:44;;;;;;;0.30;0.30;;;9.10;99.90;;;;;;5006320;28;20037;-75
2022/11/19 00:09:13;;;;;;;2.50;2.40;;;9.00;99.90;;;;;;5012607;28;20057;-75
2022/11/19 00:14:23;;;;;;;2.45;2.35;;;9.10;99.90;;;;;;5009236;28;20389;-75
2022/11/19 00:16:49;;;;;;;0.20;0.20;;;9.10;99.90;;;;;;5007417;28;20286;-75
2022/11/19 00:19:16;;;;;;;0.20;0.20;;;9.10;99.90;;;;;;5006989;28;20489;-75
2022/11/19 00:21:42;;;;;;;0.20;0.20;;;9.00;99.90;;;;;;5009013;28;20049;-75
2022/11/19 00:24:09;;;;;;;0.10;0.10;;;9.00;99.90;;;;;;5007402;28;20516;-76
2022/11/19 00:26:35;;;;;;;0.10;0.10;;;9.00;99.90;;;;;;5002095;28;20055;-74
2022/11/19 00:29:01;;;;;;;2.95;2.85;;;9.00;99.90;;;;;;4983346;28;20511;-74
2022/11/19 00:31:27;;;;;;;0.20;0.20;;;9.00;99.90;;;;;;5000921;28;20105;-76
2022/11/19 00:33:53;;;;;;;1.73;1.70;;;8.90;99.90;;;;;;4983403;28;20080;-75
2022/11/19 00:36:20;;;;;;;0.20;0.20;;;8.90;99.90;;;;;;5000774;28;20101;-74
2022/11/19 00:38:46;;;;;;;0.20;0.20;;;8.00;99.90;;;;;;4983201;28;20262;-75
2022/11/19 00:41:12;;;;;;;0.20;0.20;;;8.80;99.90;;;;;;4999877;28;20084;-74
2022/11/19 00:43:47;;;;;;;0.10;0.10;;;8.70;99.90;;;;;;4999775;28;20290;-74
2022/11/19 00:46:33;;;;;;;1.10;1.10;;;7.40;99.90;;;;;;5003806;28;20030;-75
2022/11/19 00:48:59;;;;;;;0.20;0.20;;;8.70;99.90;;;;;;5006424;28;20362;-75
2022/11/19 00:51:28;;;;;;;0.10;0.10;;;8.60;99.90;;;;;;5003990;28;20579;-76
2022/11/19 00:53:54;;;;;;;0.45;0.45;;;8.60;99.90;;;;;;5004746;28;20398;-77
2022/11/19 00:56:22;;;;;;;3.95;3.83;;;8.60;99.90;;;;;;5003812;28;20528;-75
2022/11/19 00:58:48;;;;;;;10.13;9.73;;;8.60;99.90;;;;;;5003875;28;20141;-75
2022/11/19 01:01:15;;;;;;;8.85;8.55;;;8.60;99.90;;;;;;5003634;28;20053;-74
2022/11/19 01:03:44;;;;;;;0.10;0.10;;;8.60;99.90;;;;;;5003259;28;20022;-74
2022/11/19 01:06:11;;;;;;;0.13;0.13;;;8.60;99.90;;;;;;5003578;28;20029;-74
2022/11/19 01:08:38;;;;;;;0.10;0.10;;;8.60;99.90;;;;;;5006629;28;20030;-74
2022/11/19 01:11:13;;;;;;;8.88;8.57;;;8.60;99.90;;;;;;5003999;28;20273;-75
2022/11/19 01:13:40;;;;;;;0.38;0.38;;;8.60;99.90;;;;;;5004503;28;20079;-74
2022/11/19 01:16:08;;;;;;;0.15;0.15;;;8.60;99.90;;;;;;5003253;28;20547;-75
2022/11/19 01:18:35;;;;;;;0.10;0.10;;;8.60;99.90;;;;;;5006191;28;20228;-74
2022/11/19 01:21:02;;;;;;;4.38;4.20;;;8.50;99.90;;;;;;5004149;28;20022;-75
2022/11/19 01:23:28;;;;;;;0.15;0.15;;;8.50;99.90;;;;;;4985942;28;20513;-75
2022/11/19 01:25:53;;;;;;;0.10;0.10;;;8.40;99.90;;;;;;5007189;28;20034;-73
2022/11/19 01:28:19;;;;;;;0.10;0.10;;;8.30;99.90;;;;;;5003632;28;20619;-75
2022/11/19 01:30:45;;;;;;;0.10;0.10;;;8.30;99.90;;;;;;5003704;28;20045;-74
2022/11/19 01:33:11;;;;;;;0.95;0.95;;;8.30;99.90;;;;;;4985118;28;20127;-75
2022/11/19 01:35:38;;;;;;;0.10;0.10;;;8.30;99.90;;;;;;5003885;28;20057;-75
2022/11/19 01:38:04;;;;;;;0.30;0.30;;;;;;;;;;5006399;28;20271;-75
2022/11/19 01:40:30;;;;;;;0.10;0.10;;;8.30;99.90;;;;;;5003643;28;20041;-74
2022/11/19 01:42:56;;;;;;;0.22;0.22;;;8.30;99.90;;;;;;5003491;28;20026;-74
2022/11/19 01:45:28;;;;;;;0.30;0.30;;;8.20;99.90;;;;;;5002854;28;20489;-75
2022/11/19 01:48:13;;;;;;;0.10;0.10;;;8.20;99.90;;;;;;5005779;28;20116;-74
2022/11/19 01:50:55;;;;;;;0.10;0.10;;;8.10;99.90;;;;;;5003585;28;20018;-75
2022/11/19 01:53:25;;;;;;;0.20;0.20;;;8.10;99.90;;;;;;5004682;28;20105;-74
2022/11/19 01:55:51;;;;;;;0.10;0.10;;;8.00;99.90;;;;;;5009064;28;20308;-75
2022/11/19 01:58:21;;;;;;;0.10;0.10;;;7.90;99.90;;;;;;5011127;28;20041;-75
2022/11/19 02:00:48;;;;;;;0.20;0.20;;;7.90;99.90;;;;;;5010608;28;20034;-75
2022/11/19 02:03:15;;;;;;;0.10;0.10;;;7.90;99.90;;;;;;5011330;28;20116;-75
2022/11/19 02:05:42;;;;;;;0.10;0.10;;;7.90;99.90;;;;;;5005700;28;20060;-74
2022/11/19 02:08:41;;;;;;;0.20;0.20;;;7.90;99.90;;;;;;5003161;28;20466;-75
2022/11/19 02:11:24;;;;;;;0.00;0.00;;;7.80;99.90;;;;;;5003089;28;20516;-75
2022/11/19 02:14:18;;;;;;;0.10;0.10;;;7.70;99.90;;;;;;5002981;28;20025;-75
2022/11/19 02:17:20;;;;;;;0.28;0.28;;;7.70;99.90;;;;;;5004127;28;20022;-75
2022/11/19 02:20:04;;;;;;;0.10;0.10;;;8.10;99.90;;;;;;5002297;28;20049;-75
2022/11/19 02:23:05;;;;;;;0.20;0.20;;;7.70;99.90;;;;;;5002238;28;20014;-75
2022/11/19 02:25:40;;;;;;;0.10;0.10;;;7.70;99.90;;;;;;5002456;28;20037;-75
2022/11/19 02:28:40;;;;;;;0.00;0.00;;;7.70;99.90;;;;;;4985538;28;20468;-75
2022/11/19 02:31:36;;;;;;;0.00;0.00;;;7.70;99.90;;;;;;5005999;28;20033;-75
2022/11/19 02:34:16;;;;;;;0.10;0.10;;;7.80;99.90;;;;;;5002573;28;20049;-75
2022/11/19 02:37:08;;;;;;;0.10;0.10;;;7.80;99.90;;;;;;5002139;28;20228;-75
2022/11/19 02:39:48;;;;;;;0.10;0.10;;;7.70;99.90;;;;;;4947545;28;20533;-75
2022/11/19 02:42:40;;;;;;;7.78;7.43;;;7.70;99.90;;;;;;5002279;28;20312;-75
2022/11/19 02:45:13;;;;;;;0.10;0.10;;;7.70;99.90;;;;;;5002019;28;20038;-75
2022/11/19 02:47:45;;;;;;;0.10;0.10;;;7.10;99.90;;;;;;5006180;28;20441;-74
2022/11/19 02:50:19;;;;;;;0.10;0.10;;;7.70;99.90;;;;;;5002372;28;20267;-75
2022/11/19 02:52:46;;;;;;;0.10;0.10;;;7.70;99.90;;;;;;5003054;28;20101;-75
2022/11/19 02:55:14;;;;;;;0.10;0.10;;;7.70;99.90;;;;;;5002389;28;20104;-76
2022/11/19 02:57:50;;;;;;;0.10;0.10;;;7.70;99.90;;;;;;5002002;28;20179;-76
2022/11/19 03:06:05;;;;;;;0.10;0.10;;;7.70;99.90;;;;;;5001980;28;20121;-76
2022/11/19 03:08:31;;;;;;;0.15;0.15;;;7.70;99.90;;;;;;5001082;28;20247;-75
2022/11/19 03:11:25;;;;;;;0.20;0.20;;;7.80;99.90;;;;;;5001577;28;20026;-75
2022/11/19 03:17:12;;;;;;;0.10;0.10;;;7.70;99.90;;;;;;5001056;28;20445;-75
2022/11/19 03:20:14;;;;;;;0.35;0.35;;;7.70;99.90;;;;;;5001280;28;20109;-75
2022/11/19 03:22:47;;;;;;;0.10;0.10;;;7.70;99.90;;;;;;4983803;28;20036;-75
2022/11/19 03:25:17;;;;;;;0.10;0.10;;;7.80;99.90;;;;;;5001256;28;20022;-75
2022/11/19 03:27:50;;;;;;;0.75;0.75;;;7.70;99.90;;;;;;5000734;28;20064;-74
2022/11/19 03:30:18;;;;;;;0.35;0.35;;;7.70;99.90;;;;;;5000732;28;20014;-75
2022/11/19 03:33:05;;;;;;;0.10;0.10;;;7.30;99.90;;;;;;5001009;28;20346;-75
2022/11/19 03:35:46;;;;;;;0.20;0.20;;;7.90;99.90;;;;;;5001248;28;20115;-74
2022/11/19 03:38:19;;;;;;;0.10;0.10;;;7.60;99.90;;;;;;5000897;28;20072;-75
2022/11/19 03:40:47;;;;;;;0.10;0.10;;;7.60;99.90;;;;;;4966702;28;20046;-75
2022/11/19 03:43:18;;;;;;;0.20;0.20;;;7.60;99.90;;;;;;5000852;28;20451;-75
2022/11/19 03:45:47;;;;;;;1.95;1.85;;;7.60;99.90;;;;;;5000628;28;20231;-75
2022/11/19 03:48:15;;;;;;;0.10;0.10;;;7.50;99.90;;;;;;5001372;28;20201;-75
2022/11/19 03:50:59;;;;;;;0.20;0.20;;;7.40;99.90;;;;;;5002381;28;20204;-75
2022/11/19 03:53:26;;;;;;;0.13;0.13;;;7.40;99.90;;;;;;5004505;28;20014;-75
2022/11/19 03:56:00;;;;;;;0.10;0.10;;;7.40;99.90;;;;;;5001763;28;20026;-75
2022/11/19 03:58:26;;;;;;;;;;;7.40;99.90;;;;;;5001651;28;20515;-75
2022/11/19 04:00:52;;;;;;;0.10;0.10;;;7.30;99.90;;;;;;5001400;28;20116;-75
2022/11/19 04:03:18;;;;;;;0.20;0.20;;;7.30;99.90;;;;;;4983890;28;20045;-75
2022/11/19 04:05:44;;;;;;;0.10;0.10;;;7.30;99.90;;;;;;5001023;28;20369;-75
2022/11/19 04:08:10;;;;;;;0.28;0.28;;;7.30;99.90;;;;;;5001914;28;20145;-75
2022/11/19 04:10:36;;;;;;;0.13;0.13;;;7.30;99.90;;;;;;5001451;28;20014;-75
2022/11/19 04:13:01;;;;;;;0.10;0.10;;;7.30;99.90;;;;;;5001208;28;20022;-75
2022/11/19 04:15:27;;;;;;;0.20;0.20;;;7.20;99.90;;;;;;5000864;28;20033;-75
2022/11/19 04:17:53;;;;;;;0.10;0.10;;;7.10;99.90;;;;;;5000402;28;20119;-75
2022/11/19 04:20:19;;;;;;;0.10;0.10;;;7.10;99.90;;;;;;4999945;28;20042;-75
2022/11/19 04:22:45;;;;;;;0.10;0.10;;;5.30;99.90;;;;;;5000821;28;20101;-75
2022/11/19 04:25:10;;;;;;;0.10;0.10;;;6.90;99.90;;;;;;5000622;28;20030;-75
2022/11/19 04:27:36;;;;;;;0.10;0.10;;;7.00;99.90;;;;;;5000493;28;20255;-75
2022/11/19 04:30:02;;;;;;;0.10;0.10;;;7.00;99.90;;;;;;5000652;28;20025;-75
2022/11/19 04:32:30;;;;;;;0.20;0.20;;;7.70;99.90;;;;;;5004702;28;20018;-75
2022/11/19 04:34:55;;;;;;;0.10;0.10;;;7.10;99.90;;;;;;4982737;28;20072;-75
2022/11/19 04:37:21;;;;;;;0.10;0.10;;;7.10;99.90;;;;;;4999788;28;20452;-75
2022/11/19 04:39:47;;;;;;;0.17;0.17;;;7.00;99.90;;;;;;4983069;28;20513;-75
2022/11/19 04:42:13;;;;;;;0.20;0.20;;;7.00;99.90;;;;;;4999820;28;20109;-75
2022/11/19 04:44:39;;;;;;;0.10;0.10;;;7.10;99.90;;;;;;5000045;28;20022;-74
2022/11/19 04:47:04;;;;;;;0.10;0.10;;;7.00;99.90;;;;;;5000214;28;20034;-75
2022/11/19 04:49:30;;;;;;;0.20;0.20;;;7.10;99.90;;;;;;4999791;28;20264;-75
2022/11/19 04:51:56;;;;;;;1.75;1.75;;;7.10;99.90;;;;;;5000539;28;20166;-75
2022/11/19 04:54:22;;;;;;;0.05;0.05;;;7.10;99.90;;;;;;4999662;28;20504;-75
2022/11/19 04:56:48;;;;;;;0.10;0.10;;;7.10;99.90;;;;;;5000687;28;20266;-75
2022/11/19 04:59:14;;;;;;;0.10;0.10;;;9.60;99.90;;;;;;5000180;28;20310;-75
2022/11/19 05:01:40;;;;;;;0.00;0.00;;;7.10;99.90;;;;;;5000626;28;20022;-75
2022/11/19 05:04:08;;;;;;;0.10;0.10;;;7.10;99.90;;;;;;5002310;28;20544;-75
2022/11/19 05:06:34;;;;;;;0.10;0.10;;;7.10;99.90;;;;;;5005325;28;20343;-76
2022/11/19 05:09:00;;;;;;;0.10;0.10;;;7.20;99.90;;;;;;5001487;28;20030;-75
2022/11/19 05:11:25;;;;;;;0.10;0.10;;;7.10;99.90;;;;;;5003368;28;20030;-75
2022/11/19 05:13:51;;;;;;;0.10;0.10;;;7.10;99.90;;;;;;5003813;28;20421;-75
2022/11/19 05:16:17;;;;;;;0.10;0.10;;;7.20;99.90;;;;;;5008817;28;20022;-75
2022/11/19 05:18:43;;;;;;;0.10;0.10;;;7.20;99.90;;;;;;5009838;28;20024;-75
2022/11/19 05:21:08;;;;;;;1.02;0.98;;;7.10;99.90;;;;;;5012436;28;20037;-74
2022/11/19 05:23:34;;;;;;;0.13;0.13;;;7.10;99.90;;;;;;5007847;28;20040;-75
2022/11/19 05:26:00;;;;;;;0.10;0.10;;;7.10;99.90;;;;;;5001938;28;20049;-74
2022/11/19 05:28:26;;;;;;;0.10;0.10;;;7.10;99.90;;;;;;5000636;28;20416;-74
2022/11/19 05:30:53;;;;;;;0.10;0.10;;;7.10;99.90;;;;;;5002521;28;20374;-75
2022/11/19 05:33:20;;;;;;;0.10;0.10;;;7.20;99.90;;;;;;5004477;28;20528;-75
2022/11/19 05:35:49;;;;;;;0.10;0.10;;;7.20;99.90;;;;;;5009792;28;20022;-74
2022/11/19 05:38:15;;;;;;;0.10;0.10;;;7.20;99.90;;;;;;4986845;28;20621;-74
2022/11/19 05:40:44;;;;;;;0.77;0.77;;;7.20;99.90;;;;;;5004534;28;20105;-76
2022/11/19 05:43:10;;;;;;;0.10;0.10;;;7.30;99.90;;;;;;4996336;28;20036;-76
2022/11/19 05:45:36;;;;;;;0.30;0.30;;;7.30;99.90;;;;;;5003652;28;20231;-76
2022/11/19 05:48:02;;;;;;;0.10;0.10;;;7.30;99.90;;;;;;5004101;28;20022;-75
2022/11/19 05:50:27;;;;;;;0.10;0.10;;;7.80;99.90;;;;;;5003890;28;20026;-75
2022/11/19 05:52:53;;;;;;;0.10;0.10;;;7.30;99.90;;;;;;5003727;28;20026;-75
2022/11/19 05:55:21;;;;;;;0.20;0.20;;;7.40;99.90;;;;;;5003431;28;20022;-75
2022/11/19 05:57:48;;;;;;;0.20;0.20;;;7.40;99.90;;;;;;5008313;28;20042;-75
2022/11/19 06:00:16;;;;;;;0.82;0.82;;;7.40;99.90;;;;;;5004949;28;20129;-75
2022/11/19 06:02:41;;;;;;;0.10;0.10;;;7.30;99.90;;;;;;4985244;28;20014;-75
2022/11/19 06:05:10;;;;;;;0.10;0.10;;;7.30;99.90;;;;;;5002669;28;20028;-75
2022/11/19 06:07:36;;;;;;;0.10;0.10;;;5.50;99.90;;;;;;5002289;28;20109;-75
2022/11/19 06:10:02;;;;;;;0.10;0.10;;;7.40;99.90;;;;;;5002524;28;20117;-75
2022/11/19 06:12:28;;;;;;;0.10;0.10;;;7.40;99.90;;;;;;5002771;28;20508;-74
2022/11/19 06:14:54;;;;;;;0.22;0.22;;;7.40;99.90;;;;;;5002712;28;20056;-74
2022/11/19 06:17:20;;;;;;;20.15;19.08;;;7.40;99.90;;;;;;5002424;28;20018;-75
2022/11/19 06:19:46;;;;;;;0.10;0.10;;;7.40;99.90;;;;;;4984539;28;20038;-74
2022/11/19 06:22:15;;;;;;;0.10;0.10;;;7.40;99.90;;;;;;5003767;28;20018;-75
2022/11/19 06:24:42;;;;;;;0.10;0.10;;;9.20;99.90;;;;;;5003517;28;20052;-74
2022/11/19 06:27:08;;;;;;;4.43;4.22;;;7.40;99.90;;;;;;5005161;28;20227;-73
2022/11/19 06:29:34;;;;;;;0.20;0.20;;;7.40;99.90;;;;;;4985230;28;20018;-75
2022/11/19 06:31:59;;;;;;;71.13;60.17;;;7.50;99.90;;;;;;5003759;28;20334;-74
2022/11/19 06:34:26;;;;;;;0.20;0.20;;;7.50;99.90;;;;;;5006815;28;20021;-74
2022/11/19 06:36:51;;;;;;;0.10;0.10;;;7.90;99.90;;;;;;5006172;28;20034;-74
2022/11/19 06:39:20;;;;;;;0.28;0.28;;;7.50;99.90;;;;;;5003138;28;20045;-74
2022/11/19 06:41:47;;;;;;;0.50;0.50;;;7.20;99.90;;;;;;5001123;28;20578;-74
2022/11/19 06:44:13;;;;;;;0.50;0.50;;;7.50;99.90;;;;;;5002013;28;20028;-74
2022/11/19 06:46:39;;;;;;;0.17;0.17;;;7.50;99.90;;;;;;5002555;28;20089;-74
2022/11/19 06:49:05;;;;;;;0.10;0.10;;;7.50;99.90;;;;;;5001583;28;20255;-75
2022/11/19 06:51:32;;;;;;;0.10;0.10;;;7.50;99.90;;;;;;5002769;28;20022;-74
2022/11/19 06:53:57;;;;;;;0.10;0.10;;;7.60;99.90;;;;;;5002439;28;20018;-74
2022/11/19 06:56:26;;;;;;;0.10;0.10;;;7.60;99.90;;;;;;4984691;28;20022;-76
2022/11/19 06:58:57;;;;;;;2.80;2.70;;;7.70;99.90;;;;;;5010783;28;20100;-75
2022/11/19 07:01:22;;;;;;;0.10;0.10;;;7.70;99.90;;;;;;5002646;28;20018;-75
2022/11/19 07:03:48;;;;;;;0.20;0.20;;;7.70;99.90;;;;;;5001793;28;20021;-74
2022/11/19 07:06:14;;;;;;;0.20;0.20;;;7.70;99.90;;;;;;4984298;28;20342;-74
2022/11/19 07:08:41;;;;;;;0.10;0.10;;;7.70;99.90;;;;;;5001225;28;20068;-75
2022/11/19 07:11:25;;;;;;;0.30;0.30;;;7.70;99.90;;;;;;4983928;28;20323;-76
2022/11/19 07:13:58;;;;;;;0.20;0.20;;;7.70;99.90;;;;;;5002077;28;20029;-76
2022/11/19 07:16:33;;;;;;;0.20;0.20;;;7.80;99.90;;;;;;4984515;28;20717;-75
2022/11/19 07:19:05;;;;;;;0.10;0.10;;;7.80;99.90;;;;;;5001474;28;20032;-75
2022/11/19 07:21:31;;;;;;;0.00;0.00;;;7.90;99.90;;;;;;4983419;28;20092;-75
2022/11/19 07:23:58;;;;;;;0.10;0.10;;;8.00;99.90;;;;;;5003740;28;20029;-75
2022/11/19 07:26:24;;;;;;;1.75;1.67;;;8.00;99.90;;;;;;5004052;28;20030;-75
2022/11/19 07:28:50;;;;;;;0.10;0.10;;;8.10;99.90;;;;;;5001366;28;20113;-74
2022/11/19 07:31:16;;;;;;;1.35;1.33;;;8.20;99.90;;;;;;5002181;28;20021;-74
2022/11/19 07:33:42;;;;;;;0.20;0.20;;;8.20;99.90;;;;;;5001344;28;20223;-75
2022/11/19 07:36:11;;;;;;;0.20;0.20;;;8.30;99.90;;;;;;5002041;28;20060;-75
2022/11/19 07:38:37;;;;;;;0.20;0.20;;;8.30;99.90;;;;;;5001332;28;20038;-75
2022/11/19 07:42:47;;;;;;;0.10;0.10;;;8.30;99.90;;;;;;4983354;28;20045;-75
2022/11/19 07:43:50;;;;;;;0.10;0.10;;;8.30;99.90;;;;;;5001006;28;20092;-75
2022/11/19 07:46:15;;;;;;;0.20;0.20;;;8.30;99.90;;;;;;5003327;28;20489;-75
2022/11/19 07:48:42;;;;;;;0.20;0.20;;;;;;;;;;4982598;28;20196;-75
2022/11/19 07:51:07;;;;;;;0.10;0.10;;;8.30;99.90;;;;;;4996073;28;20084;-74
2022/11/19 07:53:33;;;;;;;0.20;0.20;;;11.80;99.90;;;;;;4982513;28;20109;-75
2022/11/19 07:56:00;;;;;;;0.10;0.10;;;8.30;99.90;;;;;;4982792;28;20029;-75
2022/11/19 07:58:25;;;;;;;0.10;0.10;;;8.30;99.90;;;;;;4994883;28;20064;-75
2022/11/19 08:00:51;;;;;;;0.10;0.10;;;8.30;99.90;;;;;;5005756;28;20022;-75
2022/11/19 08:03:18;;;;;;;0.15;0.15;;;8.20;99.90;;;;;;5004885;28;20634;-75
2022/11/19 08:05:44;;;;;;;2.00;1.92;;;8.20;99.90;;;;;;5004240;28;20036;-75
2022/11/19 08:08:09;;;;;;;0.10;0.10;;;8.20;99.90;;;;;;5003014;28;20037;-75
2022/11/19 08:10:35;;;;;;;0.10;0.10;;;8.10;99.90;;;;;;5003484;28;20026;-75
2022/11/19 08:13:04;;;;;;;0.10;0.10;;;8.10;99.90;;;;;;5002857;28;20030;-76
2022/11/19 08:15:31;;;;;;;0.30;0.30;;;8.10;99.90;;;;;;5002708;28;20270;-75
2022/11/19 08:18:12;;;;;;;0.10;0.10;;;8.10;99.90;;;;;;5003850;28;20038;-75
2022/11/19 08:20:42;;;;;;;0.20;0.20;;;8.10;99.90;;;;;;5002702;28;20105;-75
2022/11/19 08:23:09;;;;;;;0.10;0.10;;;8.10;99.90;;;;;;5002436;28;20729;-75
2022/11/19 08:25:36;;;;;;;0.13;0.13;;;8.10;99.90;;;;;;5003465;28;20029;-76
2022/11/19 08:28:03;;;;;;;0.10;0.10;;;8.20;99.90;;;;;;5002697;28;20030;-75
2022/11/19 08:30:30;;;;;;;0.35;0.35;;;8.20;99.90;;;;;;5001858;28;20026;-76
2022/11/19 08:32:55;;;;;;;0.17;0.17;;;8.20;99.90;;;;;;5003769;28;20018;-76
2022/11/19 08:35:22;;;;;;;2.83;2.72;;;8.30;99.90;;;;;;4988401;28;20022;-76
2022/11/19 08:37:50;;;;;;;0.73;0.73;;;8.30;99.90;;;;;;5006691;28;20733;-76
2022/11/19 08:40:16;;;;;;;0.65;0.65;;;8.40;99.90;;;;;;5007415;28;20044;-76
2022/11/19 08:43:00;;;;;;;0.20;0.20;;;8.40;99.90;;;;;;5007866;28;20022;-76
2022/11/19 08:45:28;;;;;;;8.65;8.00;;;8.50;99.90;;;;;;5003406;28;20115;-78
2022/11/19 08:47:54;;;;;;;0.20;0.20;;;8.50;99.90;;;;;;4987359;28;20022;-77
2022/11/19 08:50:23;;;;;;;0.20;0.20;;;8.50;99.90;;;;;;5008596;28;20034;-75
2022/11/19 08:53:07;;;;;;;3.20;2.47;;;10.20;99.90;;;;;;5006014;28;20018;-76
2022/11/19 08:55:34;;;;;;;0.20;0.20;;;8.50;99.90;;;;;;5001166;28;20026;-75
2022/11/19 08:58:02;;;;;;;0.68;0.68;;;8.60;99.90;;;;;;5000927;28;20037;-76
2022/11/19 09:00:34;;;;;;;0.20;0.20;;;8.60;99.90;;;;;;5003537;28;20096;-75
2022/11/19 09:03:00;;;;;;;4.63;4.43;;;8.60;99.90;;;;;;5002216;28;20014;-75
2022/11/19 09:05:28;;;;;;;0.17;0.17;;;8.60;99.90;;;;;;4983449;28;20033;-76
2022/11/19 09:07:54;;;;;;;0.20;0.20;;;8.60;99.90;;;;;;5005220;28;20025;-75
2022/11/19 09:10:20;;;;;;;0.20;0.20;;;8.60;99.90;;;;;;5003418;28;20022;-75
2022/11/19 09:12:46;;;;;;;0.63;0.63;;;8.60;99.90;;;;;;5004159;28;20294;-75
2022/11/19 09:15:12;;;;;;;0.10;0.10;;;8.60;99.90;;;;;;4985838;28;20053;-75
2022/11/19 09:17:39;;;;;;;0.17;0.17;;;9.40;99.90;;;;;;5003881;28;20030;-75
2022/11/19 09:20:06;;;;;;;1.08;1.05;;;6.70;99.90;;;;;;4986995;28;20041;-75
2022/11/19 09:22:32;;;;;;;0.10;0.10;;;8.50;99.90;;;;;;5006858;28;20018;-75
2022/11/19 09:24:57;;;;;;;0.10;0.10;;;8.60;99.90;;;;;;5005604;28;20026;-76
2022/11/19 09:27:24;;;;;;;16.30;15.60;;;8.60;99.90;;;;;;5005643;28;20033;-76
2022/11/19 09:29:50;;;;;;;0.20;0.20;;;8.60;99.90;;;;;;5009141;28;20080;-75
2022/11/19 09:32:16;;;;;;;0.10;0.10;;;8.60;99.90;;;;;;5005459;28;20022;-75
2022/11/19 09:34:42;;;;;;;2.00;2.00;;;8.60;99.90;;;;;;4986686;28;20029;-76
2022/11/19 09:37:08;;;;;;;1.55;1.55;;;8.70;99.90;;;;;;5005067;28;20032;-76
2022/11/19 09:39:34;;;;;;;8.75;8.27;;;8.80;99.90;;;;;;5005321;28;20065;-75
2022/11/19 09:42:23;;;;;;;0.20;0.20;;;12.10;99.90;;;;;;5005191;28;20659;-75
2022/11/19 09:44:59;;;;;;;1.40;1.40;;;8.30;99.90;;;;;;4986407;28;20030;-76
2022/11/19 09:47:54;;;;;;;0.20;0.20;;;8.80;99.90;;;;;;5007652;28;20034;-76
2022/11/19 09:50:24;;;;;;;2.20;2.10;;;8.90;99.90;;;;;;5008156;28;20022;-75
2022/11/19 09:53:06;;;;;;;0.47;0.47;;;8.90;99.90;;;;;;5004855;28;20109;-75
2022/11/19 09:55:38;;;;;;;0.10;0.10;;;8.80;99.90;;;;;;5004027;28;20014;-75
2022/11/19 09:58:19;;;;;;;0.20;0.20;;;8.80;99.90;;;;;;5005566;28;20056;-74
2022/11/19 10:00:45;;;;;;;1.85;1.85;;;8.70;99.90;;;;;;5003698;28;20025;-75
2022/11/19 10:03:14;;;;;;;0.28;0.28;;;8.70;99.90;;;;;;5004192;28;20029;-76
2022/11/19 10:05:58;;;;;;;0.13;0.13;;;8.60;99.90;;;;;;4986524;28;20678;-77
2022/11/19 10:08:32;;;;;;;;;;;8.60;99.90;;;;;;5004306;28;20014;-76
2022/11/19 10:11:12;;;;;;;0.47;0.47;;;8.60;99.90;;;;;;5003390;28;19905;-77
2022/11/19 10:14:04;;;;;;;1.20;1.20;;;5.70;99.90;;;;;;4985625;28;20512;-76
2022/11/19 10:16:29;;;;;;;0.20;0.20;;;8.40;99.90;;;;;;5004863;28;20666;-76
2022/11/19 10:18:55;;;;;;;7.70;7.45;;;8.40;99.90;;;;;;5004637;28;20030;-76
2022/11/19 10:21:49;;;;;;;3.60;3.42;;;8.40;99.90;;;;;;4985975;28;20170;-77
2022/11/19 10:24:41;;;;;;;0.40;0.40;;;8.40;99.90;;;;;;5004046;28;20485;-76
2022/11/19 10:27:29;;;;;;;0.30;0.30;;;8.60;99.90;;;;;;4985941;28;20033;-75
2022/11/19 10:29:58;;;;;;;0.10;0.10;;;8.70;99.90;;;;;;4985405;28;20115;-75
2022/11/19 10:32:31;;;;;;;0.30;0.30;;;8.30;99.90;;;;;;4986178;28;20100;-75
2022/11/19 10:35:04;;;;;;;0.32;0.32;;;8.30;99.90;;;;;;5004039;28;20052;-75
2022/11/19 10:37:37;;;;;;;0.25;0.25;;;8.40;99.90;;;;;;4986961;28;20034;-74
2022/11/19 10:40:16;;;;;;;0.40;0.40;;;8.50;99.90;;;;;;4986723;28;20052;-74
2022/11/19 10:42:53;;;;;;;0.25;0.25;;;8.50;99.90;;;;;;5005349;28;20051;-75
2022/11/19 10:45:22;;;;;;;0.30;0.30;;;8.60;99.90;;;;;;5005599;28;20081;-75
2022/11/19 10:48:11;;;;;;;4.38;2.92;;;8.70;99.90;;;;;;5002912;28;20014;-76
2022/11/19 10:50:38;;;;;;;1.77;1.73;;;8.80;99.90;;;;;;5003471;28;20006;-75
2022/11/19 10:53:19;;;;;;;2.47;2.38;;;8.90;99.90;;;;;;5002839;28;20126;-75
2022/11/19 10:55:49;;;;;;;0.43;0.43;;;8.90;99.90;;;;;;4984654;28;20022;-75
2022/11/19 10:58:25;;;;;;;0.30;0.30;;;9.00;99.90;;;;;;5002479;28;20053;-75
2022/11/19 11:00:56;;;;;;;0.40;0.40;;;9.10;99.90;;;;;;4985410;28;20037;-75
2022/11/19 11:03:45;;;;;;;0.30;0.30;;;9.00;99.90;;;;;;5002615;28;20050;-75
2022/11/19 11:06:11;;;;;;;4.30;4.10;;;9.10;99.90;;;;;;5002770;28;20756;-76
2022/11/19 11:08:50;;;;;;;0.20;0.20;;;9.40;99.90;;;;;;5003957;28;20060;-75
2022/11/19 11:17:15;;;;;;;0.20;0.20;;;9.20;99.90;;;;;;5009973;28;20049;-74
2022/11/19 11:19:41;;;;;;;0.20;0.20;;;9.20;99.90;;;;;;5002885;28;20105;-75
2022/11/19 11:22:08;;;;;;;0.15;0.15;;;9.20;99.90;;;;;;5003183;28;20105;-75
2022/11/19 11:24:37;;;;;;;0.47;0.47;;;9.20;99.90;;;;;;5002440;28;20084;-77
2022/11/19 11:27:33;;;;;;;0.40;0.40;;;9.60;99.90;;;;;;5003007;28;20101;-76
2022/11/19 11:30:06;;;;;;;0.75;0.75;;;9.10;99.90;;;;;;4889441;29;20068;-75
2022/11/19 11:32:32;;;;;;;0.25;0.25;;;9.10;99.90;;;;;;4905509;29;20088;-75
2022/11/19 11:34:58;;;;;;;6.90;6.63;;;8.90;99.90;;;;;;4886617;29;20106;-75
2022/11/19 11:37:26;;;;;;;0.63;0.63;;;8.80;99.90;;;;;;4886574;29;20731;-75
2022/11/19 11:39:55;;;;;;;4.28;4.10;;;8.70;99.90;;;;;;4902238;29;20722;-75
2022/11/19 11:42:27;;;;;;;0.47;0.47;;;8.70;99.90;;;;;;4902412;29;20147;-76
2022/11/19 11:44:57;;;;;;;0.10;0.10;;;8.70;99.90;;;;;;4902376;29;20024;-75
2022/11/19 11:47:31;;;;;;;20.25;19.23;;;8.70;99.90;;;;;;4902552;29;20036;-74
2022/11/19 11:50:06;;;;;;;4.57;4.38;;;8.50;99.90;;;;;;4904810;29;20072;-74
2022/11/19 11:52:40;;;;;;;0.20;0.20;;;8.80;99.90;;;;;;4905776;29;20027;-73
2022/11/19 11:55:26;;;;;;;0.20;0.20;;;8.90;99.90;;;;;;4911177;29;20021;-74
2022/11/19 11:57:59;;;;;;;0.68;0.68;;;8.80;99.90;;;;;;4907473;29;20049;-75
2022/11/19 12:00:42;;;;;;;0.20;0.20;;;8.40;99.90;;;;;;4875740;29;20056;-75
2022/11/19 12:03:10;;;;;;;0.10;0.10;;;8.40;99.90;;;;;;4890359;29;20052;-75
2022/11/19 12:05:41;;;;;;;0.43;0.43;;;8.40;99.90;;;;;;4905618;28;20035;-76
2022/11/19 12:08:29;;;;;;;3.55;3.45;;;8.40;99.90;;;;;;4988664;28;20033;-77
2022/11/19 12:11:01;;;;;;;0.30;0.30;;;8.40;99.90;;;;;;4992614;28;20091;-76
2022/11/19 12:13:39;;;;;;;0.38;0.38;;;8.30;99.90;;;;;;4988492;28;20031;-76
2022/11/19 12:16:37;;;;;;;2.88;2.78;;;8.50;99.90;;;;;;4983716;28;20018;-78
2022/11/19 12:19:31;;;;;;;0.13;0.13;;;8.50;99.90;;;;;;4883955;29;20060;-75
2022/11/19 12:22:26;;;;;;;0.52;0.52;;;8.60;99.90;;;;;;4884146;29;20024;-76
2022/11/19 12:25:19;;;;;;;0.22;0.22;;;8.70;99.90;;;;;;4883929;29;20036;-75
2022/11/19 12:30:29;;;;;;;0.10;0.10;;;8.80;99.90;;;;;;5114647;23;20063;-75
2022/11/19 12:33:19;;;;;;;2.70;2.60;;;8.90;99.90;;;;;;4944193;29;20344;-76
2022/11/19 12:35:52;;;;;;;0.85;0.85;;;8.90;99.90;;;;;;4941371;29;20063;-76
2022/11/19 12:38:25;;;;;;;;;;;9.70;99.90;;;;;;4942153;29;20644;-75
2022/11/19 12:41:10;;;;;;;3.85;3.70;;;9.00;99.90;;;;;;4942467;29;20086;-75
2022/11/19 12:43:57;;;;;;;12.43;11.98;;;9.00;99.90;;;;;;4947286;29;20038;-75
2022/11/19 12:46:23;;;;;;;1.70;1.70;;;9.10;99.90;;;;;;4942344;29;20039;-75
2022/11/19 12:49:27;;;;;;;11.93;11.35;;;9.00;99.90;;;;;;4942814;29;20091;-75
2022/11/19 12:52:02;;;;;;;0.28;0.28;;;9.10;99.90;;;;;;4945072;29;20028;-75
2022/11/19 12:54:31;;;;;;;1.00;1.00;;;9.10;99.90;;;;;;4941537;29;20093;-74
2022/11/19 12:57:30;;;;;;;7.13;6.70;;;9.10;99.90;;;;;;4942818;29;20059;-77
2022/11/19 13:00:15;;;;;;;3.83;3.63;;;9.10;99.90;;;;;;4941860;29;20115;-75
2022/11/19 13:03:11;;;;;;;0.13;0.13;;;9.00;99.90;;;;;;4941976;29;20242;-74
2022/11/19 13:05:46;;;;;;;0.20;0.20;;;9.00;99.90;;;;;;4941500;29;20039;-75
2022/11/19 13:08:45;;;;;;;0.30;0.30;;;9.00;99.90;;;;;;4941857;29;20027;-75
2022/11/19 13:11:21;;;;;;;0.10;0.10;;;9.00;99.90;;;;;;4941925;29;20023;-75
2022/11/19 13:13:59;;;;;;;0.20;0.20;;;8.90;99.90;;;;;;4944300;29;20024;-75
2022/11/19 13:16:28;;;;;;;0.10;0.10;;;8.90;99.90;;;;;;4943823;29;20024;-75
2022/11/19 13:19:22;;;;;;;0.15;0.15;;;8.80;99.90;;;;;;4942189;29;20031;-75
2022/11/19 13:21:55;;;;;;;0.10;0.10;;;8.90;99.90;;;;;;4946286;29;20038;-75
2022/11/19 13:24:30;;;;;;;0.20;0.20;;;8.90;99.90;;;;;;4943002;29;20433;-74
2022/11/19 13:27:20;;;;;;;0.13;0.13;;;8.80;99.90;;;;;;4928358;29;20035;-75
2022/11/19 13:30:14;;;;;;;0.73;0.73;;;8.80;99.90;;;;;;4949084;28;20081;-76
2022/11/19 13:33:05;;;;;;;0.20;0.20;;;8.80;99.90;;;;;;4960473;28;20081;-75
2022/11/19 13:36:15;;;;;;;0.20;0.20;;;8.80;99.90;;;;;;4960954;28;20015;-76
2022/11/19 13:38:54;;;;;;;0.20;0.20;;;8.70;99.90;;;;;;4883425;29;20021;-75
2022/11/19 13:44:37;;;;;;;0.10;0.10;;;8.60;99.90;;;;;;4882627;29;20040;-74
2022/11/19 13:47:20;;;;;;;0.10;0.10;;;8.80;99.90;;;;;;4887685;29;20033;-76